sensor_id;sensor_type;location;lat;lon;timestamp;pressure;altitude;pressure_sealevel;temperature;humidity
75420;BME280;63998;52.488;13.428;2023-03-03T00:00:47;101811.19;;;2.87;69.41
75420;BME280;63998;52.488;13.428;2023-03-03T00:03:22;101812.13;;;2.89;69.08
75420;BME280;63998;52.488;13.428;2023-03-03T00:05:53;101810.22;;;2.85;68.84
75420;BME280;63998;52.488;13.428;2023-03-03T00:08:20;101824.16;;;2.90;69.11
75420;BME280;63998;52.488;13.428;2023-03-03T00:10:46;101828.50;;;2.91;68.95
75420;BME280;63998;52.488;13.428;2023-03-03T00:13:18;101830.00;;;2.70;68.36
75420;BME280;63998;52.488;13.428;2023-03-03T00:15:44;101838.03;;;2.60;68.47
75420;BME280;63998;52.488;13.428;2023-03-03T00:18:17;101833.34;;;2.69;68.82
75420;BME280;63998;52.488;13.428;2023-03-03T00:20:48;101827.44;;;2.70;69.33
75420;BME280;63998;52.488;13.428;2023-03-03T00:23:38;101826.91;;;2.77;69.81
75420;BME280;63998;52.488;13.428;2023-03-03T00:26:34;101827.53;;;2.89;69.93
75420;BME280;63998;52.488;13.428;2023-03-03T00:29:29;101822.72;;;2.95;69.47
75420;BME280;63998;52.488;13.428;2023-03-03T00:32:25;101806.28;;;2.92;70.26
75420;BME280;63998;52.488;13.428;2023-03-03T00:34:55;101808.44;;;2.66;69.76
75420;BME280;63998;52.488;13.428;2023-03-03T00:37:33;101814.44;;;2.67;68.56
75420;BME280;63998;52.488;13.428;2023-03-03T00:40:24;101795.69;;;2.68;69.17
75420;BME280;63998;52.488;13.428;2023-03-03T00:42:55;101808.50;;;2.51;68.88
75420;BME280;63998;52.488;13.428;2023-03-03T00:47:52;101799.38;;;2.57;69.89
75420;BME280;63998;52.488;13.428;2023-03-03T00:50:33;101799.38;;;2.57;69.91
75420;BME280;63998;52.488;13.428;2023-03-03T00:53:13;101795.53;;;2.65;69.93
75420;BME280;63998;52.488;13.428;2023-03-03T00:55:42;101790.38;;;2.65;70.93
75420;BME280;63998;52.488;13.428;2023-03-03T00:58:08;101793.59;;;2.61;69.58
75420;BME280;63998;52.488;13.428;2023-03-03T01:00:36;101782.94;;;2.69;70.16
75420;BME280;63998;52.488;13.428;2023-03-03T01:03:09;101791.09;;;2.62;68.87
75420;BME280;63998;52.488;13.428;2023-03-03T01:05:37;101790.22;;;2.62;69.46
75420;BME280;63998;52.488;13.428;2023-03-03T01:08:05;101784.81;;;2.56;69.23
75420;BME280;63998;52.488;13.428;2023-03-03T01:10:36;101781.28;;;2.53;69.04
75420;BME280;63998;52.488;13.428;2023-03-03T01:13:04;101783.22;;;2.41;68.87
75420;BME280;63998;52.488;13.428;2023-03-03T01:15:32;101782.88;;;2.51;69.78
75420;BME280;63998;52.488;13.428;2023-03-03T01:17:58;101785.25;;;2.65;70.86
75420;BME280;63998;52.488;13.428;2023-03-03T01:20:28;101785.09;;;2.62;69.88
75420;BME280;63998;52.488;13.428;2023-03-03T01:22:53;101778.63;;;2.52;69.03
75420;BME280;63998;52.488;13.428;2023-03-03T01:25:24;101780.47;;;2.38;68.29
75420;BME280;63998;52.488;13.428;2023-03-03T01:27:51;101778.72;;;2.37;69.04
75420;BME280;63998;52.488;13.428;2023-03-03T01:30:20;101780.31;;;2.35;69.62
75420;BME280;63998;52.488;13.428;2023-03-03T01:32:45;101773.75;;;2.40;69.86
75420;BME280;63998;52.488;13.428;2023-03-03T01:35:14;101765.97;;;2.39;69.69
75420;BME280;63998;52.488;13.428;2023-03-03T01:37:42;101757.88;;;2.47;70.25
75420;BME280;63998;52.488;13.428;2023-03-03T01:40:14;101767.50;;;2.51;70.13
75420;BME280;63998;52.488;13.428;2023-03-03T01:42:43;101755.63;;;2.53;69.71
75420;BME280;63998;52.488;13.428;2023-03-03T01:45:29;101753.69;;;2.49;69.57
75420;BME280;63998;52.488;13.428;2023-03-03T01:48:05;101744.56;;;2.55;70.15
75420;BME280;63998;52.488;13.428;2023-03-03T01:50:45;101746.50;;;2.59;69.51
75420;BME280;63998;52.488;13.428;2023-03-03T01:53:18;101757.06;;;2.48;70.11
75420;BME280;63998;52.488;13.428;2023-03-03T01:55:45;101747.44;;;2.61;70.68
75420;BME280;63998;52.488;13.428;2023-03-03T01:58:20;101744.84;;;2.43;69.88
75420;BME280;63998;52.488;13.428;2023-03-03T02:00:54;101751.94;;;2.48;70.82
75420;BME280;63998;52.488;13.428;2023-03-03T02:03:22;101743.16;;;2.43;70.10
75420;BME280;63998;52.488;13.428;2023-03-03T02:05:49;101745.25;;;2.34;70.04
75420;BME280;63998;52.488;13.428;2023-03-03T02:08:22;101746.63;;;2.28;70.38
75420;BME280;63998;52.488;13.428;2023-03-03T02:10:52;101743.34;;;2.30;70.99
75420;BME280;63998;52.488;13.428;2023-03-03T02:13:19;101756.94;;;2.29;71.26
75420;BME280;63998;52.488;13.428;2023-03-03T02:15:47;101762.00;;;2.28;71.53
75420;BME280;63998;52.488;13.428;2023-03-03T02:18:15;101761.28;;;2.30;70.79
75420;BME280;63998;52.488;13.428;2023-03-03T02:23:17;101758.22;;;2.37;70.41
75420;BME280;63998;52.488;13.428;2023-03-03T02:28:27;101770.22;;;2.38;72.04
75420;BME280;63998;52.488;13.428;2023-03-03T02:30:57;101763.84;;;2.46;72.21
75420;BME280;63998;52.488;13.428;2023-03-03T02:33:24;101770.56;;;2.44;71.03
75420;BME280;63998;52.488;13.428;2023-03-03T02:35:50;101766.56;;;2.33;70.81
75420;BME280;63998;52.488;13.428;2023-03-03T02:38:39;101761.44;;;2.33;70.82
75420;BME280;63998;52.488;13.428;2023-03-03T02:41:25;101763.66;;;2.43;71.68
75420;BME280;63998;52.488;13.428;2023-03-03T02:44:09;101752.94;;;2.02;71.32
75420;BME280;63998;52.488;13.428;2023-03-03T02:46:38;101760.31;;;2.12;72.35
75420;BME280;63998;52.488;13.428;2023-03-03T02:49:05;101764.16;;;2.20;72.26
75420;BME280;63998;52.488;13.428;2023-03-03T02:51:31;101776.31;;;2.24;71.81
75420;BME280;63998;52.488;13.428;2023-03-03T02:53:56;101769.44;;;2.23;71.68
75420;BME280;63998;52.488;13.428;2023-03-03T02:56:24;101763.53;;;2.08;71.71
75420;BME280;63998;52.488;13.428;2023-03-03T02:58:51;101763.16;;;1.86;71.78
75420;BME280;63998;52.488;13.428;2023-03-03T03:01:19;101763.84;;;1.98;73.06
75420;BME280;63998;52.488;13.428;2023-03-03T03:03:47;101762.25;;;2.16;73.08
75420;BME280;63998;52.488;13.428;2023-03-03T03:06:17;101773.63;;;2.05;72.88
75420;BME280;63998;52.488;13.428;2023-03-03T03:08:43;101775.19;;;2.03;72.13
75420;BME280;63998;52.488;13.428;2023-03-03T03:11:08;101769.88;;;1.67;72.33
75420;BME280;63998;52.488;13.428;2023-03-03T03:13:36;101777.44;;;1.80;73.18
75420;BME280;63998;52.488;13.428;2023-03-03T03:16:04;101770.47;;;1.78;73.04
75420;BME280;63998;52.488;13.428;2023-03-03T03:18:31;101780.63;;;1.76;73.10
75420;BME280;63998;52.488;13.428;2023-03-03T03:21:04;101785.94;;;1.96;73.65
75420;BME280;63998;52.488;13.428;2023-03-03T03:23:33;101797.69;;;1.92;72.84
75420;BME280;63998;52.488;13.428;2023-03-03T03:25:59;101801.94;;;1.92;73.30
75420;BME280;63998;52.488;13.428;2023-03-03T03:28:24;101793.28;;;1.90;73.56
75420;BME280;63998;52.488;13.428;2023-03-03T03:30:50;101798.56;;;1.93;73.22
75420;BME280;63998;52.488;13.428;2023-03-03T03:33:18;101793.84;;;1.84;73.16
75420;BME280;63998;52.488;13.428;2023-03-03T03:35:43;101795.97;;;1.76;72.78
75420;BME280;63998;52.488;13.428;2023-03-03T03:38:13;101789.88;;;1.74;72.75
75420;BME280;63998;52.488;13.428;2023-03-03T03:40:39;101806.41;;;1.79;73.57
75420;BME280;63998;52.488;13.428;2023-03-03T03:43:05;101807.81;;;1.74;73.03
75420;BME280;63998;52.488;13.428;2023-03-03T03:45:35;101799.03;;;1.69;72.88
75420;BME280;63998;52.488;13.428;2023-03-03T03:48:00;101795.78;;;1.57;72.89
75420;BME280;63998;52.488;13.428;2023-03-03T03:50:26;101789.09;;;1.59;74.52
75420;BME280;63998;52.488;13.428;2023-03-03T03:52:51;101795.03;;;1.43;74.06
75420;BME280;63998;52.488;13.428;2023-03-03T03:55:17;101797.81;;;1.17;74.68
75420;BME280;63998;52.488;13.428;2023-03-03T03:57:42;101787.03;;;1.23;74.80
75420;BME280;63998;52.488;13.428;2023-03-03T04:00:10;101778.72;;;1.27;75.44
75420;BME280;63998;52.488;13.428;2023-03-03T04:02:35;101778.44;;;1.37;76.24
75420;BME280;63998;52.488;13.428;2023-03-03T04:05:03;101779.91;;;1.02;75.16
75420;BME280;63998;52.488;13.428;2023-03-03T04:07:28;101772.69;;;1.10;76.41
75420;BME280;63998;52.488;13.428;2023-03-03T04:09:54;101770.84;;;0.93;76.07
75420;BME280;63998;52.488;13.428;2023-03-03T04:12:21;101773.56;;;1.11;76.75
75420;BME280;63998;52.488;13.428;2023-03-03T04:14:47;101768.56;;;1.28;76.73
75420;BME280;63998;52.488;13.428;2023-03-03T04:17:17;101765.59;;;1.21;76.15
75420;BME280;63998;52.488;13.428;2023-03-03T04:19:46;101760.41;;;0.75;75.87
75420;BME280;63998;52.488;13.428;2023-03-03T04:22:14;101766.69;;;0.65;76.78
75420;BME280;63998;52.488;13.428;2023-03-03T04:24:44;101761.06;;;0.71;77.22
75420;BME280;63998;52.488;13.428;2023-03-03T04:27:12;101768.47;;;0.81;77.39
75420;BME280;63998;52.488;13.428;2023-03-03T04:29:40;101753.88;;;0.51;77.01
75420;BME280;63998;52.488;13.428;2023-03-03T04:32:06;101759.16;;;0.24;77.51
75420;BME280;63998;52.488;13.428;2023-03-03T04:34:34;101762.78;;;0.43;78.57
75420;BME280;63998;52.488;13.428;2023-03-03T04:36:59;101755.03;;;0.56;78.20
75420;BME280;63998;52.488;13.428;2023-03-03T04:39:27;101758.03;;;0.78;78.73
75420;BME280;63998;52.488;13.428;2023-03-03T04:41:52;101756.38;;;0.93;78.46
75420;BME280;63998;52.488;13.428;2023-03-03T04:44:18;101758.94;;;0.93;77.77
75420;BME280;63998;52.488;13.428;2023-03-03T04:46:43;101754.84;;;0.53;76.89
75420;BME280;63998;52.488;13.428;2023-03-03T04:49:11;101760.34;;;0.59;77.72
75420;BME280;63998;52.488;13.428;2023-03-03T04:51:36;101765.47;;;0.59;77.74
75420;BME280;63998;52.488;13.428;2023-03-03T04:54:04;101766.50;;;0.62;77.40
75420;BME280;63998;52.488;13.428;2023-03-03T04:56:30;101762.19;;;0.76;77.95
75420;BME280;63998;52.488;13.428;2023-03-03T04:58:58;101760.31;;;0.88;78.15
75420;BME280;63998;52.488;13.428;2023-03-03T05:01:23;101765.91;;;0.81;77.39
75420;BME280;63998;52.488;13.428;2023-03-03T05:03:48;101762.91;;;0.59;77.37
75420;BME280;63998;52.488;13.428;2023-03-03T05:06:14;101752.59;;;0.72;77.81
75420;BME280;63998;52.488;13.428;2023-03-03T05:08:39;101758.69;;;0.74;76.62
75420;BME280;63998;52.488;13.428;2023-03-03T05:11:07;101760.00;;;0.82;76.64
75420;BME280;63998;52.488;13.428;2023-03-03T05:13:32;101755.41;;;0.91;77.61
75420;BME280;63998;52.488;13.428;2023-03-03T05:15:58;101744.78;;;1.00;76.49
75420;BME280;63998;52.488;13.428;2023-03-03T05:18:26;101759.19;;;0.54;76.55
75420;BME280;63998;52.488;13.428;2023-03-03T05:20:52;101762.84;;;0.02;78.12
75420;BME280;63998;52.488;13.428;2023-03-03T05:23:17;101758.09;;;-0.07;79.15
75420;BME280;63998;52.488;13.428;2023-03-03T05:25:44;101759.84;;;-0.06;79.76
75420;BME280;63998;52.488;13.428;2023-03-03T05:28:10;101755.78;;;-0.17;79.98
75420;BME280;63998;52.488;13.428;2023-03-03T05:30:36;101759.91;;;-0.19;80.62
75420;BME280;63998;52.488;13.428;2023-03-03T05:33:03;101758.53;;;-0.14;80.74
75420;BME280;63998;52.488;13.428;2023-03-03T05:35:31;101758.34;;;-0.30;80.96
75420;BME280;63998;52.488;13.428;2023-03-03T05:38:01;101763.06;;;-0.37;80.88
75420;BME280;63998;52.488;13.428;2023-03-03T05:40:27;101765.63;;;-0.37;81.52
75420;BME280;63998;52.488;13.428;2023-03-03T05:42:52;101776.38;;;-0.14;81.98
75420;BME280;63998;52.488;13.428;2023-03-03T05:45:19;101774.09;;;0.18;82.50
75420;BME280;63998;52.488;13.428;2023-03-03T05:47:46;101775.44;;;0.26;82.10
75420;BME280;63998;52.488;13.428;2023-03-03T05:50:12;101790.75;;;0.26;81.33
75420;BME280;63998;52.488;13.428;2023-03-03T05:52:37;101783.03;;;0.40;80.95
75420;BME280;63998;52.488;13.428;2023-03-03T05:55:03;101785.75;;;0.28;80.73
75420;BME280;63998;52.488;13.428;2023-03-03T05:57:29;101784.88;;;0.27;80.25
75420;BME280;63998;52.488;13.428;2023-03-03T05:59:54;101788.00;;;0.37;80.43
75420;BME280;63998;52.488;13.428;2023-03-03T06:02:20;101786.06;;;0.47;80.46
75420;BME280;63998;52.488;13.428;2023-03-03T06:04:48;101786.22;;;0.50;79.49
75420;BME280;63998;52.488;13.428;2023-03-03T06:07:16;101788.34;;;0.43;79.28
75420;BME280;63998;52.488;13.428;2023-03-03T06:09:45;101792.22;;;0.36;79.68
75420;BME280;63998;52.488;13.428;2023-03-03T06:12:13;101785.06;;;0.30;79.32
75420;BME280;63998;52.488;13.428;2023-03-03T06:14:38;101780.22;;;0.35;79.47
75420;BME280;63998;52.488;13.428;2023-03-03T06:17:03;101790.25;;;0.32;79.80
75420;BME280;63998;52.488;13.428;2023-03-03T06:19:30;101779.16;;;0.31;79.45
75420;BME280;63998;52.488;13.428;2023-03-03T06:21:55;101784.31;;;0.46;79.76
75420;BME280;63998;52.488;13.428;2023-03-03T06:24:21;101794.78;;;0.51;79.69
75420;BME280;63998;52.488;13.428;2023-03-03T06:26:49;101795.22;;;0.44;79.86
75420;BME280;63998;52.488;13.428;2023-03-03T06:29:14;101796.09;;;0.44;79.98
75420;BME280;63998;52.488;13.428;2023-03-03T06:31:40;101802.41;;;0.21;79.94
75420;BME280;63998;52.488;13.428;2023-03-03T06:34:05;101810.34;;;0.41;80.28
75420;BME280;63998;52.488;13.428;2023-03-03T06:36:33;101801.75;;;0.53;80.63
75420;BME280;63998;52.488;13.428;2023-03-03T06:38:59;101808.84;;;0.72;79.96
75420;BME280;63998;52.488;13.428;2023-03-03T06:41:25;101808.47;;;0.66;79.53
75420;BME280;63998;52.488;13.428;2023-03-03T06:43:50;101799.81;;;0.64;78.54
75420;BME280;63998;52.488;13.428;2023-03-03T06:46:15;101800.00;;;0.67;78.96
75420;BME280;63998;52.488;13.428;2023-03-03T06:48:44;101806.88;;;0.68;78.76
75420;BME280;63998;52.488;13.428;2023-03-03T06:51:22;101808.84;;;0.72;78.33
75420;BME280;63998;52.488;13.428;2023-03-03T06:53:55;101802.31;;;0.77;78.64
75420;BME280;63998;52.488;13.428;2023-03-03T06:56:23;101815.00;;;0.90;78.73
75420;BME280;63998;52.488;13.428;2023-03-03T06:58:49;101824.16;;;0.87;77.69
75420;BME280;63998;52.488;13.428;2023-03-03T07:01:17;101836.91;;;0.85;78.04
75420;BME280;63998;52.488;13.428;2023-03-03T07:03:43;101837.03;;;0.88;77.32
75420;BME280;63998;52.488;13.428;2023-03-03T07:06:25;101841.53;;;0.78;77.28
75420;BME280;63998;52.488;13.428;2023-03-03T07:08:53;101843.78;;;0.86;77.58
75420;BME280;63998;52.488;13.428;2023-03-03T07:11:22;101842.34;;;0.91;77.78
75420;BME280;63998;52.488;13.428;2023-03-03T07:13:49;101828.59;;;0.89;78.74
75420;BME280;63998;52.488;13.428;2023-03-03T07:16:17;101824.19;;;1.01;78.08
75420;BME280;63998;52.488;13.428;2023-03-03T07:23:52;101854.00;;;1.30;77.73
75420;BME280;63998;52.488;13.428;2023-03-03T07:26:20;101850.09;;;1.37;77.61
75420;BME280;63998;52.488;13.428;2023-03-03T07:28:57;101850.28;;;1.40;77.44
75420;BME280;63998;52.488;13.428;2023-03-03T07:33:52;101852.94;;;1.41;76.74
75420;BME280;63998;52.488;13.428;2023-03-03T07:36:38;101859.28;;;1.48;77.03
75420;BME280;63998;52.488;13.428;2023-03-03T07:41:47;101860.78;;;1.44;77.26
75420;BME280;63998;52.488;13.428;2023-03-03T07:44:30;101852.41;;;1.18;76.98
75420;BME280;63998;52.488;13.428;2023-03-03T07:46:57;101861.00;;;0.61;77.21
75420;BME280;63998;52.488;13.428;2023-03-03T07:49:35;101865.28;;;0.19;78.69
75420;BME280;63998;52.488;13.428;2023-03-03T07:52:22;101865.09;;;0.03;79.74
75420;BME280;63998;52.488;13.428;2023-03-03T07:54:53;101869.00;;;0.24;80.21
75420;BME280;63998;52.488;13.428;2023-03-03T07:57:22;101870.31;;;0.46;80.48
75420;BME280;63998;52.488;13.428;2023-03-03T07:59:49;101877.03;;;0.58;80.16
75420;BME280;63998;52.488;13.428;2023-03-03T08:02:46;101869.34;;;0.86;80.58
75420;BME280;63998;52.488;13.428;2023-03-03T08:07:49;101872.50;;;0.82;79.35
75420;BME280;63998;52.488;13.428;2023-03-03T08:10:39;101873.84;;;0.48;79.09
75420;BME280;63998;52.488;13.428;2023-03-03T08:13:16;101864.88;;;0.13;79.37
75420;BME280;63998;52.488;13.428;2023-03-03T08:15:48;101872.97;;;0.06;80.27
75420;BME280;63998;52.488;13.428;2023-03-03T08:18:33;101877.88;;;0.03;80.86
75420;BME280;63998;52.488;13.428;2023-03-03T08:21:10;101859.03;;;0.01;81.35
75420;BME280;63998;52.488;13.428;2023-03-03T08:23:39;101864.44;;;0.33;82.03
75420;BME280;63998;52.488;13.428;2023-03-03T08:26:04;101867.28;;;0.38;81.54
75420;BME280;63998;52.488;13.428;2023-03-03T08:28:32;101860.81;;;0.58;81.40
75420;BME280;63998;52.488;13.428;2023-03-03T08:30:57;101867.38;;;0.40;80.42
75420;BME280;63998;52.488;13.428;2023-03-03T08:33:23;101875.50;;;0.19;80.38
75420;BME280;63998;52.488;13.428;2023-03-03T08:35:48;101862.56;;;0.03;80.51
75420;BME280;63998;52.488;13.428;2023-03-03T08:38:16;101861.53;;;0.14;80.86
75420;BME280;63998;52.488;13.428;2023-03-03T08:40:42;101876.88;;;0.14;80.94
75420;BME280;63998;52.488;13.428;2023-03-03T08:43:08;101880.72;;;0.49;81.28
75420;BME280;63998;52.488;13.428;2023-03-03T08:45:34;101874.34;;;0.70;82.19
75420;BME280;63998;52.488;13.428;2023-03-03T08:47:59;101868.78;;;0.77;80.85
75420;BME280;63998;52.488;13.428;2023-03-03T08:50:26;101883.03;;;0.59;79.83
75420;BME280;63998;52.488;13.428;2023-03-03T08:52:55;101877.72;;;0.56;79.25
75420;BME280;63998;52.488;13.428;2023-03-03T08:55:20;101880.59;;;0.75;79.30
75420;BME280;63998;52.488;13.428;2023-03-03T08:57:48;101876.03;;;0.84;79.18
75420;BME280;63998;52.488;13.428;2023-03-03T09:00:15;101885.22;;;0.95;78.84
75420;BME280;63998;52.488;13.428;2023-03-03T09:02:41;101875.72;;;1.07;78.93
75420;BME280;63998;52.488;13.428;2023-03-03T09:05:09;101870.59;;;1.07;78.00
75420;BME280;63998;52.488;13.428;2023-03-03T09:07:38;101868.91;;;0.93;77.84
75420;BME280;63998;52.488;13.428;2023-03-03T09:10:04;101859.97;;;0.72;78.39
75420;BME280;63998;52.488;13.428;2023-03-03T09:12:33;101855.53;;;0.55;78.70
75420;BME280;63998;52.488;13.428;2023-03-03T09:17:42;101872.16;;;0.20;79.85
75420;BME280;63998;52.488;13.428;2023-03-03T09:20:37;101858.81;;;0.11;80.08
75420;BME280;63998;52.488;13.428;2023-03-03T09:25:51;101851.97;;;0.53;80.75
75420;BME280;63998;52.488;13.428;2023-03-03T09:30:52;101868.09;;;0.37;79.43
75420;BME280;63998;52.488;13.428;2023-03-03T09:35:53;101866.03;;;0.31;80.36
75420;BME280;63998;52.488;13.428;2023-03-03T09:38:34;101861.94;;;0.20;80.35
75420;BME280;63998;52.488;13.428;2023-03-03T09:46:38;101879.31;;;0.54;81.19
75420;BME280;63998;52.488;13.428;2023-03-03T09:49:34;101868.44;;;0.71;80.57
75420;BME280;63998;52.488;13.428;2023-03-03T10:03:01;101864.13;;;0.85;78.05
75420;BME280;63998;52.488;13.428;2023-03-03T10:11:15;101863.72;;;1.36;78.50
75420;BME280;63998;52.488;13.428;2023-03-03T10:16:57;101869.97;;;1.87;76.60
75420;BME280;63998;52.488;13.428;2023-03-03T10:19:40;101863.25;;;1.89;76.20
75420;BME280;63998;52.488;13.428;2023-03-03T10:27:49;101865.22;;;2.25;74.54
75420;BME280;63998;52.488;13.428;2023-03-03T10:36:10;101854.66;;;2.51;73.53
75420;BME280;63998;52.488;13.428;2023-03-03T10:44:46;101862.75;;;1.79;74.69
75420;BME280;63998;52.488;13.428;2023-03-03T10:52:45;101867.16;;;2.29;75.10
75420;BME280;63998;52.488;13.428;2023-03-03T10:55:42;101861.72;;;2.56;74.19
75420;BME280;63998;52.488;13.428;2023-03-03T11:03:53;101860.53;;;2.99;72.41
75420;BME280;63998;52.488;13.428;2023-03-03T11:06:45;101855.66;;;3.21;72.24
75420;BME280;63998;52.488;13.428;2023-03-03T11:14:41;101862.97;;;3.48;70.53
75420;BME280;63998;52.488;13.428;2023-03-03T11:22:54;101854.50;;;2.81;71.78
75420;BME280;63998;52.488;13.428;2023-03-03T11:31:43;101846.25;;;2.54;75.25
75420;BME280;63998;52.488;13.428;2023-03-03T11:39:50;101849.13;;;3.10;73.46
75420;BME280;63998;52.488;13.428;2023-03-03T11:42:29;101853.59;;;3.31;72.99
75420;BME280;63998;52.488;13.428;2023-03-03T11:45:10;101839.22;;;3.00;72.61
75420;BME280;63998;52.488;13.428;2023-03-03T11:47:46;101851.81;;;3.30;73.90
75420;BME280;63998;52.488;13.428;2023-03-03T11:50:20;101849.31;;;3.49;73.06
75420;BME280;63998;52.488;13.428;2023-03-03T11:55:29;101843.97;;;3.62;71.75
75420;BME280;63998;52.488;13.428;2023-03-03T11:58:17;101836.56;;;3.33;71.24
75420;BME280;63998;52.488;13.428;2023-03-03T12:03:39;101836.22;;;2.75;72.95
75420;BME280;63998;52.488;13.428;2023-03-03T12:09:12;101818.66;;;3.16;72.75
75420;BME280;63998;52.488;13.428;2023-03-03T12:12:13;101814.25;;;3.32;72.15
75420;BME280;63998;52.488;13.428;2023-03-03T12:14:56;101804.13;;;3.35;71.92
75420;BME280;63998;52.488;13.428;2023-03-03T12:25:39;101800.44;;;3.83;70.73
75420;BME280;63998;52.488;13.428;2023-03-03T12:28:30;101789.88;;;3.59;70.59
75420;BME280;63998;52.488;13.428;2023-03-03T12:33:56;101789.25;;;2.76;74.07
75420;BME280;63998;52.488;13.428;2023-03-03T12:41:52;101782.66;;;2.81;74.61
75420;BME280;63998;52.488;13.428;2023-03-03T12:44:40;101785.16;;;2.79;74.73
75420;BME280;63998;52.488;13.428;2023-03-03T12:50:51;101781.09;;;2.50;75.04
75420;BME280;63998;52.488;13.428;2023-03-03T12:53:00;101771.63;;;2.66;75.37
75420;BME280;63998;52.488;13.428;2023-03-03T12:55:43;101779.41;;;2.67;75.15
75420;BME280;63998;52.488;13.428;2023-03-03T13:01:21;101771.13;;;3.07;74.90
75420;BME280;63998;52.488;13.428;2023-03-03T13:17:52;101766.31;;;2.79;74.78
75420;BME280;63998;52.488;13.428;2023-03-03T13:20:40;101753.16;;;2.73;75.19
75420;BME280;63998;52.488;13.428;2023-03-03T13:25:54;101763.56;;;2.58;75.39
75420;BME280;63998;52.488;13.428;2023-03-03T13:28:27;101758.00;;;2.67;75.74
75420;BME280;63998;52.488;13.428;2023-03-03T13:31:02;101747.91;;;2.70;75.64
75420;BME280;63998;52.488;13.428;2023-03-03T13:33:39;101753.53;;;2.63;75.94
75420;BME280;63998;52.488;13.428;2023-03-03T13:36:14;101749.50;;;2.68;75.87
75420;BME280;63998;52.488;13.428;2023-03-03T13:38:45;101744.84;;;2.77;75.99
75420;BME280;63998;52.488;13.428;2023-03-03T13:41:16;101750.41;;;2.86;75.50
75420;BME280;63998;52.488;13.428;2023-03-03T13:46:20;101751.38;;;3.78;78.50
75420;BME280;63998;52.488;13.428;2023-03-03T13:51:43;101745.63;;;3.47;73.20
75420;BME280;63998;52.488;13.428;2023-03-03T14:05:36;101724.44;;;3.51;72.98
75420;BME280;63998;52.488;13.428;2023-03-03T14:08:08;101724.00;;;3.42;73.43
75420;BME280;63998;52.488;13.428;2023-03-03T14:13:30;101717.13;;;3.23;74.30
75420;BME280;63998;52.488;13.428;2023-03-03T14:21:10;101714.22;;;3.15;75.05
75420;BME280;63998;52.488;13.428;2023-03-03T14:26:08;101707.16;;;3.11;74.71
75420;BME280;63998;52.488;13.428;2023-03-03T14:31:26;101698.00;;;3.16;75.01
75420;BME280;63998;52.488;13.428;2023-03-03T14:36:42;101700.84;;;3.22;75.31
75420;BME280;63998;52.488;13.428;2023-03-03T14:41:53;101692.91;;;3.36;74.45
75420;BME280;63998;52.488;13.428;2023-03-03T14:44:30;101696.00;;;3.29;74.54
75420;BME280;63998;52.488;13.428;2023-03-03T14:47:02;101689.22;;;3.48;74.27
75420;BME280;63998;52.488;13.428;2023-03-03T14:49:33;101693.19;;;3.42;74.07
75420;BME280;63998;52.488;13.428;2023-03-03T14:54:41;101687.91;;;3.39;73.90
75420;BME280;63998;52.488;13.428;2023-03-03T14:57:11;101678.84;;;3.28;74.03
75420;BME280;63998;52.488;13.428;2023-03-03T14:59:55;101676.94;;;3.23;74.51
75420;BME280;63998;52.488;13.428;2023-03-03T15:02:30;101665.75;;;3.41;74.39
75420;BME280;63998;52.488;13.428;2023-03-03T15:05:26;101667.13;;;3.33;74.27
75420;BME280;63998;52.488;13.428;2023-03-03T15:08:07;101663.75;;;3.34;74.25
75420;BME280;63998;52.488;13.428;2023-03-03T15:16:15;101668.72;;;3.31;74.38
75420;BME280;63998;52.488;13.428;2023-03-03T15:21:32;101660.56;;;3.39;74.21
75420;BME280;63998;52.488;13.428;2023-03-03T15:24:13;101660.22;;;3.32;74.35
75420;BME280;63998;52.488;13.428;2023-03-03T15:26:47;101662.91;;;3.35;74.56
75420;BME280;63998;52.488;13.428;2023-03-03T15:29:25;101665.34;;;3.32;74.42
75420;BME280;63998;52.488;13.428;2023-03-03T15:35:00;101650.09;;;3.54;73.80
75420;BME280;63998;52.488;13.428;2023-03-03T15:43:21;101639.94;;;3.76;72.76
75420;BME280;63998;52.488;13.428;2023-03-03T15:48:52;101656.47;;;3.81;72.51
75420;BME280;63998;52.488;13.428;2023-03-03T15:51:36;101646.84;;;3.77;72.21
75420;BME280;63998;52.488;13.428;2023-03-03T15:57:09;101634.34;;;3.66;72.71
75420;BME280;63998;52.488;13.428;2023-03-03T16:05:38;101626.97;;;3.54;73.25
75420;BME280;63998;52.488;13.428;2023-03-03T16:08:21;101629.00;;;3.61;73.40
75420;BME280;63998;52.488;13.428;2023-03-03T16:22:03;101619.53;;;3.79;72.77
75420;BME280;63998;52.488;13.428;2023-03-03T16:30:05;101614.47;;;3.61;74.00
75420;BME280;63998;52.488;13.428;2023-03-03T16:32:46;101622.91;;;3.78;73.71
75420;BME280;63998;52.488;13.428;2023-03-03T16:37:53;101618.38;;;3.73;73.58
75420;BME280;63998;52.488;13.428;2023-03-03T16:40:27;101608.16;;;3.74;73.54
75420;BME280;63998;52.488;13.428;2023-03-03T16:45:48;101617.50;;;3.72;73.75
75420;BME280;63998;52.488;13.428;2023-03-03T16:53:50;101607.44;;;3.77;73.58
75420;BME280;63998;52.488;13.428;2023-03-03T16:56:21;101603.84;;;3.73;73.56
75420;BME280;63998;52.488;13.428;2023-03-03T17:10:10;101610.06;;;3.59;73.86
75420;BME280;63998;52.488;13.428;2023-03-03T17:20:47;101606.16;;;3.48;74.18
75420;BME280;63998;52.488;13.428;2023-03-03T17:31:12;101595.22;;;3.33;74.84
75420;BME280;63998;52.488;13.428;2023-03-03T17:33:58;101606.22;;;3.30;75.15
75420;BME280;63998;52.488;13.428;2023-03-03T17:36:43;101608.72;;;3.29;75.28
75420;BME280;63998;52.488;13.428;2023-03-03T17:44:29;101610.75;;;3.36;74.99
75420;BME280;63998;52.488;13.428;2023-03-03T17:47:01;101612.25;;;3.31;75.21
75420;BME280;63998;52.488;13.428;2023-03-03T17:55:29;101603.59;;;3.29;75.39
75420;BME280;63998;52.488;13.428;2023-03-03T17:58:28;101598.66;;;3.33;75.40
75420;BME280;63998;52.488;13.428;2023-03-03T18:12:03;101598.50;;;3.49;74.98